createdAt,value
2022-12-22T00:00:17.242Z,2.22
2022-12-22T00:03:02.810Z,3.05
2022-12-22T00:05:48.513Z,1.23
2022-12-22T00:08:34.033Z,3.42
2022-12-22T00:11:20.112Z,3.15
2022-12-22T00:14:05.513Z,1.38
2022-12-22T00:16:53.643Z,1.52
2022-12-22T00:19:39.503Z,2.78
2022-12-22T00:22:37.532Z,4.13
2022-12-22T00:25:23.754Z,1.10
2022-12-22T00:28:09.241Z,2.13
2022-12-22T00:30:55.450Z,2.88
2022-12-22T00:33:43.871Z,1.00
2022-12-22T00:36:30.899Z,3.42
2022-12-22T00:39:18.921Z,1.10
2022-12-22T00:42:04.623Z,1.90
2022-12-22T00:44:49.963Z,0.80
2022-12-22T00:47:43.473Z,1.25
2022-12-22T00:50:29.572Z,1.55
2022-12-22T00:53:16.010Z,1.33
2022-12-22T00:56:01.461Z,1.60
2022-12-22T00:58:46.757Z,1.25
2022-12-22T01:01:32.195Z,0.88
2022-12-22T01:04:17.571Z,0.70
2022-12-22T01:07:02.887Z,3.58
2022-12-22T01:09:48.587Z,1.05
2022-12-22T01:12:43.242Z,0.70
2022-12-22T01:15:35.382Z,1.77
2022-12-22T01:18:21.354Z,2.15
2022-12-22T01:21:07.006Z,1.50
2022-12-22T01:23:52.449Z,1.25
2022-12-22T01:26:37.977Z,2.13
2022-12-22T01:29:23.544Z,2.08
2022-12-22T01:32:08.996Z,1.50
2022-12-22T01:34:55.072Z,0.85
2022-12-22T01:37:40.588Z,1.80
2022-12-22T01:40:39.408Z,1.02
2022-12-22T01:43:44.939Z,1.13
2022-12-22T01:46:52.045Z,1.30
2022-12-22T01:49:38.915Z,0.90
2022-12-22T01:52:25.836Z,1.15
2022-12-22T01:55:13.372Z,0.87
2022-12-22T01:57:58.748Z,1.65
2022-12-22T02:00:44.318Z,1.13
2022-12-22T02:03:40.970Z,1.08
2022-12-22T02:06:46.345Z,0.63
2022-12-22T02:09:58.346Z,0.82
2022-12-22T02:13:23.277Z,1.42
2022-12-22T02:16:18.075Z,1.48
2022-12-22T02:19:14.881Z,1.38
2022-12-22T02:22:16.709Z,1.45
2022-12-22T02:25:11.265Z,0.70
2022-12-22T02:28:00.385Z,1.48
2022-12-22T02:30:46.831Z,0.88
2022-12-22T02:33:32.387Z,1.15
2022-12-22T02:36:57.722Z,0.70
2022-12-22T02:39:57.152Z,1.67
2022-12-22T02:43:04.530Z,0.93
2022-12-22T02:46:19.832Z,1.40
2022-12-22T02:49:38.540Z,0.70
2022-12-22T02:52:47.592Z,0.82
2022-12-22T02:55:35.037Z,0.80
2022-12-22T02:58:20.520Z,0.70
2022-12-22T03:01:06.526Z,0.93
2022-12-22T03:03:51.945Z,1.05
2022-12-22T03:06:37.021Z,0.90
2022-12-22T03:09:22.295Z,0.63
2022-12-22T03:12:07.662Z,1.08
2022-12-22T03:14:53.119Z,0.88
2022-12-22T03:17:38.627Z,0.85
2022-12-22T03:20:24.789Z,0.82
2022-12-22T03:23:10.192Z,0.82
2022-12-22T03:25:55.385Z,0.70
2022-12-22T03:28:27.653Z,1.00
2022-12-22T03:31:06.356Z,1.25
2022-12-22T03:33:33.650Z,1.05
2022-12-22T03:36:00.986Z,0.87
2022-12-22T03:38:28.503Z,0.40
2022-12-22T03:40:55.360Z,0.80
2022-12-22T03:43:40.719Z,2.13
2022-12-22T03:46:17.819Z,0.70
2022-12-22T03:49:09.076Z,0.70
2022-12-22T03:51:47.481Z,1.20
2022-12-22T03:54:17.453Z,0.63
2022-12-22T03:56:44.449Z,0.75
2022-12-22T03:59:12.235Z,0.70
2022-12-22T04:01:45.539Z,1.30
2022-12-22T04:04:13.827Z,0.65
2022-12-22T04:09:07.899Z,0.60
2022-12-22T04:11:53.677Z,2.10
2022-12-22T04:14:23.716Z,0.70
2022-12-22T04:16:53.476Z,0.98
2022-12-22T04:19:20.307Z,0.68
2022-12-22T04:21:47.105Z,1.10
2022-12-22T04:24:14.010Z,0.57
2022-12-22T04:26:40.786Z,0.80
2022-12-22T04:29:07.559Z,1.02
2022-12-22T04:31:34.552Z,0.63
2022-12-22T04:34:01.295Z,0.73
2022-12-22T04:36:28.068Z,0.40
2022-12-22T04:38:54.809Z,0.57
2022-12-22T04:41:21.587Z,0.50
2022-12-22T04:43:48.332Z,1.17
2022-12-22T04:46:15.140Z,0.60
2022-12-22T04:48:41.932Z,1.02
2022-12-22T04:51:09.187Z,0.77
2022-12-22T04:53:36.036Z,0.47
2022-12-22T04:56:06.232Z,0.50
2022-12-22T04:58:33.886Z,1.02
2022-12-22T05:01:18.058Z,0.68
2022-12-22T05:03:45.559Z,0.55
2022-12-22T05:06:15.685Z,1.10
2022-12-22T05:08:43.508Z,1.27
2022-12-22T05:11:10.454Z,1.17
2022-12-22T05:13:37.411Z,1.17
2022-12-22T05:16:09.873Z,0.40
2022-12-22T05:18:38.113Z,0.85
2022-12-22T05:23:39.202Z,1.33
2022-12-22T05:26:06.491Z,1.30
2022-12-22T05:28:33.386Z,1.08
2022-12-22T05:31:06.359Z,0.60
2022-12-22T05:33:33.680Z,1.65
2022-12-22T05:36:00.847Z,0.50
2022-12-22T05:38:27.893Z,0.70
2022-12-22T05:41:01.505Z,0.70
2022-12-22T05:43:30.302Z,1.42
2022-12-22T05:45:58.612Z,3.45
2022-12-22T05:48:30.818Z,0.90
2022-12-22T05:51:00.905Z,3.10
2022-12-22T05:53:27.770Z,1.13
2022-12-22T05:55:54.518Z,1.95
2022-12-22T06:00:47.953Z,1.25
2022-12-22T06:03:15.357Z,8.48
2022-12-22T06:05:42.656Z,1.45
2022-12-22T06:08:09.398Z,2.47
2022-12-22T06:10:36.663Z,2.63
2022-12-22T06:13:03.465Z,1.97
2022-12-22T06:15:30.685Z,3.35
2022-12-22T06:17:57.445Z,2.80
2022-12-22T06:20:24.728Z,6.63
2022-12-22T06:22:51.481Z,3.30
2022-12-22T06:25:19.144Z,1.95
2022-12-22T06:27:47.954Z,3.80
2022-12-22T06:30:16.199Z,1.95
2022-12-22T06:35:11.040Z,6.25
2022-12-22T06:37:38.581Z,3.95
2022-12-22T06:40:08.678Z,5.65
2022-12-22T06:42:53.915Z,4.93
2022-12-22T06:45:20.720Z,3.88
2022-12-22T06:47:47.509Z,4.50
2022-12-22T06:50:14.820Z,4.40
2022-12-22T06:52:41.680Z,4.90
2022-12-22T06:55:09.584Z,3.63
2022-12-22T06:57:36.348Z,4.05
2022-12-22T07:00:05.181Z,4.93
2022-12-22T07:02:32.749Z,9.15
2022-12-22T07:04:59.643Z,5.03
2022-12-22T07:07:26.394Z,5.13
2022-12-22T07:09:53.712Z,8.38
2022-12-22T07:12:21.093Z,10.80
2022-12-22T07:14:47.883Z,13.23
2022-12-22T07:17:14.651Z,17.08
2022-12-22T07:19:41.515Z,17.45
2022-12-22T07:22:09.043Z,16.58
2022-12-22T07:24:35.837Z,15.23
2022-12-22T07:27:03.111Z,16.58
2022-12-22T07:29:29.926Z,17.07
2022-12-22T07:31:57.430Z,14.80
2022-12-22T07:34:24.824Z,15.32
2022-12-22T07:36:52.155Z,12.77
2022-12-22T07:39:19.455Z,17.42
2022-12-22T07:42:04.973Z,12.67
2022-12-22T07:44:31.751Z,12.57
2022-12-22T07:46:59.211Z,11.52
2022-12-22T07:49:44.635Z,10.75
2022-12-22T07:52:11.890Z,9.57
2022-12-22T07:54:42.130Z,16.47
2022-12-22T07:57:09.220Z,9.77
2022-12-22T07:59:36.590Z,11.35
2022-12-22T08:02:03.911Z,10.80
2022-12-22T08:04:30.863Z,9.57
2022-12-22T08:06:58.859Z,11.00
2022-12-22T08:09:28.128Z,8.07
2022-12-22T08:11:55.481Z,8.85
2022-12-22T08:14:24.396Z,12.13
2022-12-22T08:16:51.756Z,9.93
2022-12-22T08:19:18.567Z,8.85
2022-12-22T08:21:52.480Z,7.53
2022-12-22T08:24:20.014Z,7.10
2022-12-22T08:26:50.462Z,8.63
2022-12-22T08:29:23.333Z,8.18
2022-12-22T08:31:50.177Z,10.70
2022-12-22T08:34:17.774Z,8.35
2022-12-22T08:36:47.513Z,7.00
2022-12-22T08:39:16.166Z,6.90
2022-12-22T08:41:52.461Z,6.45
2022-12-22T08:44:24.184Z,7.13
2022-12-22T08:46:52.906Z,8.63
2022-12-22T08:49:20.035Z,10.77
2022-12-22T08:51:47.622Z,6.78
2022-12-22T08:54:15.127Z,8.30
2022-12-22T08:56:43.426Z,5.90
2022-12-22T08:59:10.640Z,6.35
2022-12-22T09:01:39.731Z,4.18
2022-12-22T09:04:07.286Z,5.20
2022-12-22T09:06:40.544Z,5.78
2022-12-22T09:09:10.874Z,5.82
2022-12-22T09:11:39.313Z,5.70
2022-12-22T09:14:06.906Z,5.18
2022-12-22T09:16:35.279Z,7.60
2022-12-22T09:19:02.811Z,4.28
2022-12-22T09:21:32.474Z,5.68
2022-12-22T09:24:01.851Z,5.00
2022-12-22T09:26:29.762Z,4.38
2022-12-22T09:28:56.748Z,4.75
2022-12-22T09:31:25.585Z,5.15
2022-12-22T09:33:53.096Z,3.55
2022-12-22T09:36:28.810Z,6.50
2022-12-22T09:38:56.144Z,5.90
2022-12-22T09:41:42.661Z,5.33
2022-12-22T09:44:28.338Z,6.70
2022-12-22T09:46:57.628Z,6.07
2022-12-22T09:49:24.714Z,6.32
2022-12-22T09:51:56.289Z,15.38
2022-12-22T10:12:25.490Z,6.38
2022-12-22T10:14:54.515Z,9.00
2022-12-22T10:17:29.100Z,10.40
2022-12-22T10:20:14.704Z,15.23
2022-12-22T10:23:15.017Z,16.98
2022-12-22T10:29:11.670Z,13.27
2022-12-22T10:31:58.985Z,29.30
2022-12-22T10:34:25.912Z,30.65
2022-12-22T10:36:58.196Z,18.33
2022-12-22T10:39:27.317Z,25.33
2022-12-22T10:42:00.481Z,19.73
2022-12-22T10:44:33.993Z,12.95
2022-12-22T10:47:17.319Z,11.95
2022-12-22T10:52:29.237Z,9.43
2022-12-22T10:55:18.693Z,10.00
2022-12-22T10:57:46.426Z,11.38
2022-12-22T11:00:23.988Z,10.82
2022-12-22T11:03:00.097Z,13.55
2022-12-22T11:05:28.904Z,9.13
2022-12-22T11:07:56.787Z,7.63
2022-12-22T11:10:46.942Z,8.18
2022-12-22T11:13:38.650Z,7.28
2022-12-22T11:16:23.716Z,8.43
2022-12-22T11:19:04.050Z,7.43
2022-12-22T11:21:44.627Z,8.25
2022-12-22T11:24:40.671Z,4.35
2022-12-22T11:27:17.018Z,5.80
2022-12-22T11:30:02.686Z,3.45
2022-12-22T11:33:13.853Z,5.30
2022-12-22T11:36:04.973Z,7.63
2022-12-22T11:38:40.809Z,8.52
2022-12-22T11:41:35.271Z,10.38
2022-12-22T11:44:40.532Z,6.88
2022-12-22T11:47:46.087Z,6.85
2022-12-22T11:50:58.272Z,5.55
2022-12-22T11:53:31.169Z,4.97
2022-12-22T11:56:13.506Z,5.90
2022-12-22T11:59:02.079Z,5.65
2022-12-22T12:01:37.805Z,6.03
2022-12-22T12:04:35.982Z,4.00
2022-12-22T12:07:36.767Z,6.28
2022-12-22T12:10:35.817Z,7.95
2022-12-22T12:13:25.560Z,9.27
2022-12-22T12:16:05.501Z,3.28
2022-12-22T12:18:41.309Z,10.52
2022-12-22T12:21:30.213Z,11.68
2022-12-22T12:24:33.956Z,6.10
2022-12-22T12:27:23.358Z,4.68
2022-12-22T12:32:56.012Z,7.55
2022-12-22T12:35:43.390Z,8.13
2022-12-22T12:41:55.498Z,9.98
2022-12-22T12:44:29.368Z,4.47
2022-12-22T12:47:04.824Z,5.63
2022-12-22T12:49:34.417Z,3.63
2022-12-22T12:52:05.032Z,7.55
2022-12-22T12:54:39.439Z,4.35
2022-12-22T12:57:12.118Z,8.10
2022-12-22T12:59:41.708Z,12.93
2022-12-22T13:02:27.272Z,5.03
2022-12-22T13:05:12.249Z,8.23
2022-12-22T13:08:06.911Z,7.25
2022-12-22T13:10:37.644Z,3.50
2022-12-22T13:13:11.508Z,9.52
2022-12-22T13:15:42.556Z,5.13
2022-12-22T13:18:29.815Z,6.97
2022-12-22T13:21:34.258Z,3.38
2022-12-22T13:24:22.845Z,4.30
2022-12-22T13:26:44.438Z,5.80
2022-12-22T13:29:21.947Z,4.55
2022-12-22T13:31:59.850Z,3.40
2022-12-22T13:35:29.223Z,4.57
2022-12-22T13:37:45.891Z,6.60
2022-12-22T13:40:20.275Z,3.90
2022-12-22T13:42:54.505Z,4.18
2022-12-22T13:45:33.332Z,3.67
2022-12-22T13:48:04.698Z,4.93
2022-12-22T13:50:36.570Z,3.63
2022-12-22T13:53:07.824Z,3.25
2022-12-22T13:55:36.437Z,3.97
2022-12-22T13:58:26.569Z,3.35
2022-12-22T14:01:12.108Z,2.90
2022-12-22T14:04:02.520Z,3.83
2022-12-22T14:06:37.272Z,2.58
2022-12-22T14:09:30.433Z,2.95
2022-12-22T14:12:08.078Z,3.03
2022-12-22T14:14:43.451Z,7.03
2022-12-22T14:17:16.060Z,4.55
2022-12-22T14:19:43.626Z,1.60
2022-12-22T14:22:17.797Z,3.95
2022-12-22T14:24:55.763Z,4.72
2022-12-22T14:27:39.718Z,3.17
2022-12-22T14:30:31.015Z,3.28
2022-12-22T14:33:23.360Z,4.55
2022-12-22T14:35:52.762Z,4.72
2022-12-22T14:38:25.221Z,3.15
2022-12-22T14:40:57.291Z,2.55
2022-12-22T14:43:26.809Z,2.40
2022-12-22T14:46:06.448Z,4.07
2022-12-22T14:48:46.496Z,2.80
2022-12-22T14:51:18.406Z,2.75
2022-12-22T14:53:54.850Z,2.88
2022-12-22T14:56:23.657Z,3.20
2022-12-22T14:58:51.496Z,3.38
2022-12-22T15:01:29.356Z,3.67
2022-12-22T15:06:40.491Z,4.88
2022-12-22T15:09:47.246Z,2.17
2022-12-22T15:12:18.408Z,4.22
2022-12-22T15:14:49.804Z,3.20
2022-12-22T15:17:26.378Z,1.95
2022-12-22T15:19:57.784Z,4.63
2022-12-22T15:22:25.477Z,5.30
2022-12-22T15:24:52.410Z,2.45
2022-12-22T15:27:19.722Z,2.92
2022-12-22T15:29:46.977Z,2.97
2022-12-22T15:32:14.486Z,2.60
2022-12-22T15:34:41.319Z,1.75
2022-12-22T15:37:12.717Z,3.20
2022-12-22T15:39:40.663Z,3.75
2022-12-22T15:42:07.576Z,4.18
2022-12-22T15:44:38.686Z,2.95
2022-12-22T15:47:06.878Z,2.80
2022-12-22T15:49:33.694Z,2.38
2022-12-22T15:52:03.772Z,2.85
2022-12-22T15:54:33.144Z,1.77
2022-12-22T15:57:00.918Z,2.80
2022-12-22T15:59:29.059Z,2.22
2022-12-22T16:04:29.441Z,3.97
2022-12-22T16:06:57.091Z,3.33
2022-12-22T16:09:27.606Z,2.22
2022-12-22T16:11:54.849Z,4.18
2022-12-22T16:14:24.658Z,5.07
2022-12-22T16:16:51.492Z,5.13
2022-12-22T16:19:19.332Z,3.78
2022-12-22T16:21:49.274Z,3.45
2022-12-22T16:24:34.718Z,7.40
2022-12-22T16:27:02.923Z,6.13
2022-12-22T16:32:18.361Z,3.23
2022-12-22T16:34:45.275Z,5.70
2022-12-22T16:37:12.122Z,4.57
2022-12-22T16:39:38.887Z,7.38
2022-12-22T16:42:06.496Z,13.60
2022-12-22T16:44:33.309Z,11.02
2022-12-22T16:47:02.624Z,6.40
2022-12-22T16:49:29.931Z,8.30
2022-12-22T16:51:56.787Z,6.23
2022-12-22T16:54:24.149Z,8.57
2022-12-22T16:56:51.870Z,7.43
2022-12-22T16:59:20.329Z,6.10
2022-12-22T17:01:55.808Z,5.47
2022-12-22T17:04:28.025Z,5.28
2022-12-22T17:06:56.292Z,6.47
2022-12-22T17:09:31.782Z,6.32
2022-12-22T17:12:00.599Z,5.57
2022-12-22T17:14:37.433Z,5.25
2022-12-22T17:17:04.306Z,5.05
2022-12-22T17:19:31.167Z,4.22
2022-12-22T17:21:58.975Z,5.57
2022-12-22T17:24:28.899Z,5.75
2022-12-22T17:27:01.036Z,5.57
2022-12-22T17:29:28.350Z,3.47
2022-12-22T17:31:56.631Z,4.40
2022-12-22T17:34:23.910Z,5.80
2022-12-22T17:36:51.134Z,4.45
2022-12-22T17:39:21.060Z,3.58
2022-12-22T17:41:55.877Z,6.10
2022-12-22T17:44:27.681Z,4.40
2022-12-22T17:46:54.729Z,4.65
2022-12-22T17:49:22.748Z,4.65
2022-12-22T17:54:25.528Z,4.75
2022-12-22T17:56:58.979Z,3.88
2022-12-22T17:59:25.763Z,5.00
2022-12-22T18:01:52.691Z,7.68
2022-12-22T18:04:19.513Z,4.13
2022-12-22T18:06:46.786Z,11.50
2022-12-22T18:09:25.635Z,11.23
2022-12-22T18:11:53.863Z,10.38
2022-12-22T18:16:51.147Z,10.50
2022-12-22T18:19:17.972Z,5.28
2022-12-22T18:21:45.376Z,8.75
2022-12-22T18:24:17.243Z,6.95
2022-12-22T18:26:44.526Z,5.97
2022-12-22T18:29:20.268Z,8.70
2022-12-22T18:31:47.185Z,9.50
2022-12-22T18:34:14.128Z,7.93
2022-12-22T18:36:42.835Z,11.73
2022-12-22T18:39:17.983Z,8.07
2022-12-22T18:41:45.445Z,6.00
2022-12-22T18:44:19.271Z,7.90
2022-12-22T18:46:47.276Z,10.07
2022-12-22T18:49:14.794Z,6.55
2022-12-22T18:51:43.514Z,8.10
2022-12-22T18:54:36.859Z,5.55
2022-12-22T18:57:03.797Z,8.27
2022-12-22T18:59:38.691Z,8.75
2022-12-22T19:02:25.238Z,6.35
2022-12-22T19:04:52.706Z,6.50
2022-12-22T19:07:22.076Z,7.97
2022-12-22T19:09:50.008Z,8.02
2022-12-22T19:12:20.064Z,10.82
2022-12-22T19:14:51.320Z,8.40
2022-12-22T19:17:25.212Z,4.90
2022-12-22T19:19:54.961Z,5.43
2022-12-22T19:22:21.921Z,5.45
2022-12-22T19:24:49.074Z,6.75
2022-12-22T19:27:27.487Z,8.32
2022-12-22T19:30:02.948Z,7.03
2022-12-22T19:32:36.447Z,6.03
2022-12-22T19:35:03.580Z,5.30
2022-12-22T19:37:31.310Z,6.20
2022-12-22T19:42:30.301Z,6.97
2022-12-22T19:44:57.092Z,13.52
2022-12-22T19:47:26.792Z,10.32
2022-12-22T19:49:53.611Z,10.43
2022-12-22T19:52:20.383Z,6.63
2022-12-22T19:54:47.206Z,6.30
2022-12-22T19:57:22.439Z,6.57
2022-12-22T19:59:51.674Z,5.40
2022-12-22T20:02:21.864Z,10.43
2022-12-22T20:04:50.091Z,6.85
2022-12-22T20:07:20.900Z,7.68
2022-12-22T20:09:48.487Z,8.68
2022-12-22T20:12:35.468Z,6.07
2022-12-22T20:15:26.300Z,10.00
2022-12-22T20:17:55.153Z,9.98
2022-12-22T20:20:25.808Z,6.35
2022-12-22T20:22:56.695Z,10.63
2022-12-22T20:25:26.639Z,6.82
2022-12-22T20:27:54.578Z,5.63
2022-12-22T20:30:24.897Z,8.10
2022-12-22T20:32:51.946Z,8.38
2022-12-22T20:35:18.935Z,8.60
2022-12-22T20:37:46.294Z,5.63
2022-12-22T20:40:31.965Z,4.67
2022-12-22T20:42:59.040Z,9.40
2022-12-22T20:45:30.403Z,7.30
2022-12-22T20:47:59.871Z,7.57
2022-12-22T20:50:30.289Z,7.45
2022-12-22T20:52:57.413Z,8.85
2022-12-22T20:55:27.193Z,5.47
2022-12-22T20:57:54.572Z,10.15
2022-12-22T21:00:27.595Z,7.57
2022-12-22T21:02:54.998Z,7.05
2022-12-22T21:05:21.952Z,6.22
2022-12-22T21:07:50.016Z,7.05
2022-12-22T21:10:21.245Z,9.95
2022-12-22T21:12:48.274Z,6.57
2022-12-22T21:15:22.841Z,5.05
2022-12-22T21:17:58.130Z,9.73
2022-12-22T21:20:28.571Z,5.90
2022-12-22T21:22:55.504Z,8.93
2022-12-22T21:25:23.204Z,7.55
2022-12-22T21:27:51.628Z,8.10
2022-12-22T21:30:24.042Z,9.00
2022-12-22T21:32:52.423Z,5.75
2022-12-22T21:35:31.034Z,7.50
2022-12-22T21:37:59.158Z,6.28
2022-12-22T21:45:24.434Z,6.35
2022-12-22T21:47:51.795Z,7.22
2022-12-22T21:50:33.438Z,5.30
2022-12-22T21:53:00.881Z,8.90
2022-12-22T21:55:29.640Z,5.97
2022-12-22T21:57:57.039Z,6.57
2022-12-22T22:00:25.479Z,4.60
2022-12-22T22:02:53.036Z,5.93
2022-12-22T22:05:35.156Z,6.32
2022-12-22T22:08:03.865Z,4.78
2022-12-22T22:10:39.560Z,6.65
2022-12-22T22:13:06.462Z,5.22
2022-12-22T22:15:34.129Z,5.70
2022-12-22T22:18:06.888Z,3.75
2022-12-22T22:20:34.347Z,7.80
2022-12-22T22:23:01.204Z,7.07
2022-12-22T22:25:28.328Z,3.95
2022-12-22T22:27:59.546Z,4.88
2022-12-22T22:30:27.132Z,3.67
2022-12-22T22:32:55.295Z,5.82
2022-12-22T22:37:53.117Z,5.07
2022-12-22T22:40:22.693Z,4.85
2022-12-22T22:42:52.009Z,6.75
2022-12-22T22:45:24.141Z,6.50
2022-12-22T22:47:51.776Z,6.72
2022-12-22T22:50:22.646Z,5.50
2022-12-22T22:52:49.581Z,4.47
2022-12-22T22:55:16.396Z,4.47
2022-12-22T22:57:43.264Z,6.13
2022-12-22T23:00:13.242Z,7.13
2022-12-22T23:02:40.553Z,5.97
2022-12-22T23:05:08.168Z,4.10
2022-12-22T23:07:36.690Z,4.25
2022-12-22T23:10:05.365Z,4.55
2022-12-22T23:12:34.599Z,6.10
2022-12-22T23:15:01.915Z,6.05
2022-12-22T23:17:29.564Z,4.77
2022-12-22T23:19:56.532Z,3.90
2022-12-22T23:22:24.113Z,6.35
2022-12-22T23:24:53.190Z,5.18
2022-12-22T23:27:20.039Z,3.67
2022-12-22T23:29:47.327Z,4.53
2022-12-22T23:32:14.156Z,5.40
2022-12-22T23:34:40.903Z,4.95
2022-12-22T23:37:12.158Z,5.05
2022-12-22T23:39:42.439Z,3.30
2022-12-22T23:42:09.173Z,5.65
2022-12-22T23:44:35.915Z,2.60
2022-12-22T23:47:03.034Z,4.07
2022-12-22T23:49:30.290Z,5.32
2022-12-22T23:51:57.473Z,4.70
2022-12-22T23:54:24.788Z,6.57
2022-12-22T23:56:51.686Z,3.72
2022-12-22T23:59:18.460Z,5.68
